Time;durP1;ratioP1;P1;durP2;ratioP2;P2;SDS_P1;SDS_P2;PMS_P1;PMS_P2;Temp;Humidity;BMP_temperature;BMP_pressure;BME280_temperature;BME280_humidity;BME280_pressure;Samples;Min_cycle;Max_cycle;Signal;HPM_P1;HPM_P2
2022/09/28 00:02:00;;;;;;;17.15;16.15;;;;;;;15.19;100.00;99147.44;5055289;28;20025;-73
2022/09/28 00:04:25;;;;;;;16.20;15.40;;;;;;;15.03;100.00;99141.00;5055666;28;20068;-74
2022/09/28 00:06:51;;;;;;;16.10;15.30;;;;;;;15.17;100.00;99141.53;5049849;28;20031;-75
2022/09/28 00:09:17;;;;;;;16.23;15.43;;;;;;;15.31;100.00;99140.22;5036197;28;20439;-75
2022/09/28 00:11:42;;;;;;;16.65;15.75;;;;;;;15.40;100.00;99148.63;5051728;28;20702;-75
2022/09/28 00:14:09;;;;;;;16.25;15.35;;;;;;;15.33;100.00;99135.44;5054448;28;20029;-75
2022/09/28 00:16:39;;;;;;;16.38;15.48;;;;;;;15.32;100.00;99141.81;5053426;28;20396;-75
2022/09/28 00:19:05;;;;;;;16.52;15.63;;;;;;;15.33;100.00;99139.97;5055139;28;20024;-73
2022/09/28 00:21:33;;;;;;;16.23;15.40;;;;;;;15.27;100.00;99143.59;5058212;28;20112;-74
2022/09/28 00:24:19;;;;;;;16.20;15.30;;;;;;;15.11;100.00;99121.94;5060163;28;20172;-75
2022/09/28 00:26:53;;;;;;;16.40;15.50;;;;;;;15.27;100.00;99130.22;5057087;28;20111;-75
2022/09/28 00:29:21;;;;;;;16.20;15.40;;;;;;;15.15;100.00;99131.09;5056462;28;20101;-74
2022/09/28 00:31:49;;;;;;;16.83;15.93;;;;;;;15.11;100.00;99131.81;5054557;28;20119;-76
2022/09/28 00:34:15;;;;;;;16.15;15.35;;;;;;;15.11;100.00;99102.41;5057418;28;20040;-76
2022/09/28 00:36:45;;;;;;;16.88;15.98;;;;;;;15.19;100.00;99129.56;5056678;28;20104;-76
2022/09/28 00:39:13;;;;;;;16.65;15.75;;;;;;;15.04;100.00;99120.44;5054559;28;20029;-74
2022/09/28 00:41:39;;;;;;;16.38;15.48;;;;;;;15.04;100.00;99125.78;5055824;28;20116;-73
2022/09/28 00:44:23;;;;;;;16.80;15.90;;;;;;;15.17;100.00;99126.31;5055136;28;20148;-75
2022/09/28 00:46:52;;;;;;;16.90;16.00;;;;;;;15.24;100.00;99122.69;5048009;28;20600;-74
2022/09/28 00:49:25;;;;;;;16.60;15.70;;;;;;;15.08;100.00;99111.75;5054472;28;20045;-73
2022/09/28 00:51:51;;;;;;;16.83;15.90;;;;;;;15.17;100.00;99120.97;5055717;28;20021;-76
2022/09/28 00:54:16;;;;;;;16.90;15.90;;;;;;;15.21;100.00;99121.31;5056156;28;20554;-74
2022/09/28 00:56:46;;;;;;;15.90;15.10;;;;;;;15.18;100.00;99119.13;5052292;28;20047;-75
2022/09/28 00:59:13;;;;;;;16.52;15.63;;;;;;;15.25;100.00;99114.44;5053736;28;20083;-76
2022/09/28 01:01:38;;;;;;;17.13;16.17;;;;;;;15.37;100.00;99115.19;5054758;28;20186;-74
2022/09/28 01:04:05;;;;;;;16.70;15.80;;;;;;;15.45;100.00;99130.03;5055832;28;20112;-73
2022/09/28 01:06:33;;;;;;;16.00;15.20;;;;;;;15.40;100.00;99113.91;5055019;28;20028;-75
2022/09/28 01:09:05;;;;;;;16.38;15.48;;;;;;;15.31;100.00;99115.34;5048961;28;20496;-74
2022/09/28 01:11:33;;;;;;;16.50;15.57;;;;;;;15.46;100.00;99107.59;5066752;28;20099;-73
2022/09/28 01:14:00;;;;;;;16.98;15.98;;;;;;;15.45;100.00;99108.66;5057235;28;20029;-74
2022/09/28 01:16:48;;;;;;;16.17;15.30;;;;;;;15.39;100.00;99106.94;5056155;28;20472;-73
2022/09/28 01:19:14;;;;;;;15.88;15.07;;;;;;;15.51;100.00;99118.38;5043475;28;20044;-74
2022/09/28 01:21:52;;;;;;;15.73;14.90;;;;;;;15.51;100.00;99106.88;5050306;28;20029;-73
2022/09/28 01:24:36;;;;;;;16.48;15.57;;;;;;;15.31;100.00;99112.69;5041931;28;20021;-75
2022/09/28 01:27:10;;;;;;;16.40;15.50;;;;;;;15.27;100.00;99114.19;5055234;28;20032;-74
2022/09/28 01:29:43;;;;;;;16.38;15.48;;;;;;;15.26;100.00;99118.72;5061037;28;20026;-74
2022/09/28 01:32:35;;;;;;;15.98;15.18;;;;;;;15.25;100.00;99114.44;5061714;28;20029;-74
2022/09/28 01:35:10;;;;;;;16.35;15.48;;;;;;;15.37;100.00;99103.72;5052089;28;20013;-74
2022/09/28 01:37:54;;;;;;;16.20;15.40;;;;;;;15.40;100.00;99098.69;5045774;28;20025;-73
2022/09/28 01:40:23;;;;;;;16.20;15.35;;;;;;;15.42;100.00;99095.75;5057057;28;20029;-74
2022/09/28 01:42:56;;;;;;;15.60;14.80;;;;;;;15.42;100.00;99103.78;5054409;28;20031;-73
2022/09/28 01:45:26;;;;;;;16.23;15.32;;;;;;;15.45;100.00;99100.63;5056295;28;20025;-74
2022/09/28 01:47:57;;;;;;;17.00;16.00;;;;;;;15.38;100.00;99091.97;5055789;28;20051;-74
2022/09/28 01:50:26;;;;;;;16.00;15.20;;;;;;;15.54;100.00;99096.50;5060953;28;20055;-76
2022/09/28 01:53:20;;;;;;;16.27;15.38;;;;;;;15.56;100.00;99096.25;5061208;28;20077;-74
2022/09/28 01:55:55;;;;;;;17.13;16.13;;;;;;;15.50;100.00;99100.75;5055084;28;20065;-75
2022/09/28 01:58:47;;;;;;;15.68;14.88;;;;;;;15.57;100.00;99100.56;5058543;28;20021;-74
2022/09/28 02:01:23;;;;;;;16.30;15.40;;;;;;;15.37;100.00;99090.34;5052065;28;20041;-74
2022/09/28 02:04:17;;;;;;;16.08;15.27;;;;;;;15.28;100.00;99089.13;5058708;28;20267;-75
2022/09/28 02:06:52;;;;;;;15.73;14.93;;;;;;;15.54;100.00;99109.06;5055584;28;20041;-73
2022/09/28 02:09:24;;;;;;;17.15;16.15;;;;;;;15.41;100.00;99108.31;5056501;28;20104;-74
2022/09/28 02:12:01;;;;;;;16.83;15.82;;;;;;;15.44;100.00;99104.38;5057615;28;20028;-74
2022/09/28 02:14:29;;;;;;;15.95;15.13;;;;;;;15.24;100.00;99088.78;5053905;28;20021;-75
2022/09/28 02:16:56;;;;;;;16.00;15.20;;;;;;;15.45;100.00;99104.13;5057142;28;20346;-74
2022/09/28 02:19:27;;;;;;;16.20;15.30;;;;;;;15.51;100.00;99109.56;5058430;28;20056;-75
2022/09/28 02:21:59;;;;;;;15.73;14.93;;;;;;;15.59;100.00;99115.31;5047235;28;20104;-75
2022/09/28 02:24:38;;;;;;;16.88;15.88;;;;;;;15.54;100.00;99109.88;5055248;28;20017;-74
2022/09/28 02:27:35;;;;;;;15.32;14.55;;;;;;;15.37;100.00;99111.72;5047252;28;20603;-75
2022/09/28 02:30:02;;;;;;;15.60;14.80;;;;;;;15.56;100.00;99110.44;5027284;28;20382;-75
2022/09/28 02:32:32;;;;;;;15.60;14.80;;;;;;;15.55;100.00;99116.03;5040386;28;20119;-74
2022/09/28 02:34:58;;;;;;;16.10;15.20;;;;;;;15.78;100.00;99139.16;5052707;28;20013;-76
2022/09/28 02:37:27;;;;;;;15.88;15.07;;;;;;;15.34;100.00;99136.22;5065482;28;20032;-73
2022/09/28 02:39:52;;;;;;;15.75;14.95;;;;;;;15.40;100.00;99144.09;5052474;28;20159;-75
2022/09/28 02:42:28;;;;;;;16.15;15.25;;;;;;;15.60;100.00;99142.84;5047652;28;20048;-75
2022/09/28 02:44:56;;;;;;;15.63;14.82;;;;;;;15.56;100.00;99136.34;5049824;28;20068;-75
2022/09/28 02:47:56;;;;;;;15.30;14.50;;;;;;;15.61;100.00;99142.63;5048511;28;20025;-75
2022/09/28 02:50:48;;;;;;;15.60;14.77;;;;;;;15.80;100.00;99140.56;5050419;28;20159;-74
2022/09/28 02:53:44;;;;;;;15.07;14.38;;;;;;;15.83;100.00;99153.44;5059244;28;20037;-75
2022/09/28 02:56:39;;;;;;;15.43;14.63;;;;;;;15.59;100.00;99162.63;5055995;28;20440;-75
2022/09/28 02:59:26;;;;;;;15.82;15.02;;;;;;;15.48;100.00;99156.28;5053595;28;20029;-75
2022/09/28 03:02:39;;;;;;;16.35;15.45;;;;;;;15.41;100.00;99150.25;5054156;28;20563;-74
2022/09/28 03:05:13;;;;;;;15.65;14.85;;;;;;;15.67;100.00;99159.59;5017291;28;20033;-75
2022/09/28 03:08:01;;;;;;;15.63;14.82;;;;;;;15.52;100.00;99156.63;5021442;28;20113;-75
2022/09/28 03:10:48;;;;;;;15.93;15.02;;;;;;;15.69;100.00;99147.59;5035227;28;20029;-74
2022/09/28 03:13:16;;;;;;;16.52;15.52;;;;;;;15.46;100.00;99145.81;5055268;28;20055;-74
2022/09/28 03:15:43;;;;;;;16.15;15.25;;;;;;;15.55;100.00;99135.53;5060620;28;20492;-75
2022/09/28 03:18:09;;;;;;;15.73;14.90;;;;;;;15.34;100.00;99138.91;5059669;28;20044;-75
2022/09/28 03:20:37;;;;;;;15.60;14.80;;;;;;;15.28;100.00;99140.69;5056462;28;20021;-76
2022/09/28 03:23:04;;;;;;;16.08;15.18;;;;;;;15.57;100.00;99136.13;5060601;28;20098;-74
2022/09/28 03:25:30;;;;;;;15.82;15.02;;;;;;;15.52;100.00;99136.03;5060928;28;20056;-74
2022/09/28 03:27:55;;;;;;;16.17;15.27;;;;;;;15.65;100.00;99143.78;5053694;28;20037;-73
2022/09/28 03:30:21;;;;;;;15.85;15.00;;;;;;;15.78;100.00;99144.50;5045737;28;20048;-75
2022/09/28 03:32:55;;;;;;;15.85;14.95;;;;;;;15.64;100.00;99142.19;5049115;28;20412;-75
2022/09/28 03:35:20;;;;;;;16.75;15.75;;;;;;;15.46;100.00;99145.81;5057723;28;20029;-74
2022/09/28 03:37:46;;;;;;;16.17;15.27;;;;;;;15.60;100.00;99154.34;5056830;28;20393;-74
2022/09/28 03:40:11;;;;;;;15.68;14.88;;;;;;;15.58;100.00;99135.09;5043325;28;20017;-74
2022/09/28 03:42:37;;;;;;;16.35;15.45;;;;;;;15.70;100.00;99143.06;5048917;28;20102;-74
2022/09/28 03:45:03;;;;;;;15.98;15.07;;;;;;;15.78;100.00;99148.00;5058425;28;20017;-73
2022/09/28 03:47:28;;;;;;;15.95;15.05;;;;;;;15.86;100.00;99142.25;5054771;28;20025;-74
2022/09/28 03:49:53;;;;;;;15.55;14.75;;;;;;;15.82;100.00;99146.47;5050017;28;20069;-73
2022/09/28 03:52:19;;;;;;;15.48;14.68;;;;;;;15.84;100.00;99136.34;5064320;28;20029;-74
2022/09/28 03:54:44;;;;;;;17.00;15.95;;;;;;;15.89;100.00;99122.25;5063211;28;20091;-75
2022/09/28 03:57:10;;;;;;;17.17;16.13;;;;;;;15.78;100.00;99131.94;5042249;28;20025;-75
2022/09/28 03:59:36;;;;;;;15.52;14.73;;;;;;;15.73;100.00;99139.91;5059362;28;20039;-73
2022/09/28 04:02:03;;;;;;;16.10;15.20;;;;;;;15.77;100.00;99140.22;5057599;28;20033;-74
2022/09/28 04:04:28;;;;;;;15.18;14.38;;;;;;;15.74;100.00;99150.34;5053928;28;20472;-74
2022/09/28 04:06:54;;;;;;;15.80;14.90;;;;;;;15.81;100.00;99152.06;5057557;28;20060;-74
2022/09/28 04:09:19;;;;;;;15.65;14.85;;;;;;;15.86;100.00;99149.47;5058866;28;20047;-74
2022/09/28 04:11:46;;;;;;;15.75;14.95;;;;;;;15.71;100.00;99142.81;5058692;28;20017;-75
2022/09/28 04:14:12;;;;;;;16.23;15.30;;;;;;;15.76;100.00;99142.09;5055139;28;20031;-71
2022/09/28 04:16:37;;;;;;;17.13;16.10;;;;;;;15.88;100.00;99147.38;5054101;28;20033;-74
2022/09/28 04:19:03;;;;;;;16.20;15.30;;;;;;;15.85;100.00;99154.00;5054618;28;20441;-73
2022/09/28 04:21:29;;;;;;;16.95;15.95;;;;;;;15.94;100.00;99157.09;5040161;28;20034;-73
2022/09/28 04:23:54;;;;;;;16.55;15.55;;;;;;;15.97;100.00;99159.28;5054088;28;20499;-75
2022/09/28 04:26:22;;;;;;;15.45;14.65;;;;;;;15.91;100.00;99157.56;5065352;28;20108;-78
2022/09/28 04:31:42;;;;;;;15.98;15.07;;;;;;;15.97;100.00;99157.41;5056319;28;20058;-77
2022/09/28 04:34:08;;;;;;;16.60;15.60;;;;;;;15.89;100.00;99159.69;5042578;28;20022;-77
2022/09/28 04:36:33;;;;;;;15.75;14.85;;;;;;;15.93;100.00;99160.81;5050945;28;20651;-78
2022/09/28 04:38:59;;;;;;;16.13;15.20;;;;;;;16.14;100.00;99169.97;5047503;28;20028;-74
2022/09/28 04:41:25;;;;;;;15.32;14.52;;;;;;;16.22;100.00;99170.38;5049279;28;20025;-72
2022/09/28 04:43:51;;;;;;;16.45;15.45;;;;;;;16.20;100.00;99172.47;5048786;28;20031;-73
2022/09/28 04:46:17;;;;;;;16.20;15.30;;;;;;;16.09;100.00;99181.41;5056270;28;20027;-72
2022/09/28 04:48:43;;;;;;;16.27;15.38;;;;;;;16.03;100.00;99167.16;5040738;28;20139;-72
2022/09/28 04:51:08;;;;;;;16.08;15.18;;;;;;;16.10;100.00;99175.00;5052286;28;20037;-72
2022/09/28 04:53:34;;;;;;;16.05;15.15;;;;;;;16.22;100.00;99173.03;5047801;28;20034;-72
2022/09/28 04:56:02;;;;;;;15.98;15.10;;;;;;;16.13;100.00;99177.19;5046342;28;20017;-73
2022/09/28 04:58:29;;;;;;;15.40;14.60;;;;;;;16.39;100.00;99181.06;5053195;28;20499;-73
2022/09/28 05:01:00;;;;;;;16.83;15.80;;;;;;;16.66;100.00;99172.31;5044289;28;20060;-73
2022/09/28 05:03:26;;;;;;;16.10;15.20;;;;;;;16.71;100.00;99178.59;5047318;28;20060;-74
2022/09/28 05:05:51;;;;;;;15.48;14.68;;;;;;;16.56;100.00;99181.03;5052264;28;20064;-73
2022/09/28 05:08:17;;;;;;;16.50;15.50;;;;;;;16.64;100.00;99182.47;5052905;28;20040;-73
2022/09/28 05:10:43;;;;;;;16.42;15.43;;;;;;;16.92;100.00;99181.53;5052549;28;20028;-73
2022/09/28 05:13:10;;;;;;;16.25;15.30;;;;;;;16.91;100.00;99178.06;5052508;28;20150;-73
2022/09/28 05:15:37;;;;;;;15.70;14.88;;;;;;;17.32;100.00;99178.53;5052868;28;20017;-73
2022/09/28 05:18:03;;;;;;;16.05;15.15;;;;;;;17.70;100.00;99172.22;5046987;28;20021;-73
2022/09/28 05:20:28;;;;;;;16.52;15.52;;;;;;;18.19;100.00;99170.22;5051543;28;20442;-74
2022/09/28 05:22:54;;;;;;;16.67;15.65;;;;;;;17.81;100.00;99165.91;5052011;28;20025;-73
2022/09/28 05:25:19;;;;;;;15.98;15.07;;;;;;;17.42;100.00;99178.66;5052154;28;20429;-74
2022/09/28 05:27:45;;;;;;;15.93;15.02;;;;;;;17.37;100.00;99183.94;5052440;28;20096;-73
2022/09/28 05:30:11;;;;;;;16.48;15.48;;;;;;;17.45;100.00;99180.81;5052730;28;20025;-73
2022/09/28 05:32:40;;;;;;;16.00;15.10;;;;;;;17.27;100.00;99173.94;5051488;28;20405;-72
2022/09/28 05:35:06;;;;;;;15.73;14.82;;;;;;;17.19;100.00;99190.47;5056804;28;20029;-74
2022/09/28 05:37:32;;;;;;;16.42;15.45;;;;;;;17.12;100.00;99187.97;5053117;28;20048;-74
2022/09/28 05:39:57;;;;;;;16.77;15.77;;;;;;;17.11;100.00;99189.03;5052869;28;20056;-72
2022/09/28 05:42:23;;;;;;;16.10;15.20;;;;;;;17.09;100.00;99187.63;5052161;28;20431;-72
2022/09/28 05:44:48;;;;;;;15.48;14.68;;;;;;;17.07;100.00;99189.78;5052078;28;20115;-72
2022/09/28 05:47:14;;;;;;;15.80;14.95;;;;;;;17.15;100.00;99200.03;5052442;28;20025;-73
2022/09/28 05:49:39;;;;;;;16.25;15.32;;;;;;;17.12;100.00;99204.03;5060767;28;20051;-73
2022/09/28 05:52:05;;;;;;;16.90;15.90;;;;;;;16.95;100.00;99208.63;5045765;28;20025;-72
2022/09/28 05:54:30;;;;;;;16.70;15.70;;;;;;;17.21;100.00;99200.91;5050206;28;20101;-72
2022/09/28 05:56:56;;;;;;;15.57;14.75;;;;;;;16.96;100.00;99198.72;5051692;28;20024;-73
2022/09/28 05:59:21;;;;;;;16.48;15.48;;;;;;;17.22;100.00;99205.22;5050912;28;20464;-73
2022/09/28 06:01:47;;;;;;;15.10;14.30;;;;;;;17.28;100.00;99202.34;5051927;28;20025;-71
2022/09/28 06:04:14;;;;;;;16.25;15.27;;;;;;;17.30;100.00;99210.94;5042734;28;20119;-67
2022/09/28 06:06:40;;;;;;;17.25;16.15;;;;;;;17.10;100.00;99213.38;5050041;28;20025;-67
2022/09/28 06:09:06;;;;;;;15.82;14.93;;;;;;;17.35;100.00;99216.38;5048933;28;20029;-67
2022/09/28 06:11:31;;;;;;;15.82;14.93;;;;;;;17.32;100.00;99211.50;5045565;28;20016;-68
2022/09/28 06:13:57;;;;;;;18.02;16.83;;;;;;;17.26;100.00;99212.53;5051806;28;20392;-68
2022/09/28 06:16:23;;;;;;;16.13;15.23;;;;;;;17.25;100.00;99210.06;5054084;28;20420;-67
2022/09/28 06:18:48;;;;;;;16.85;15.85;;;;;;;17.17;100.00;99205.97;5042389;28;20059;-67
2022/09/28 06:21:14;;;;;;;16.95;15.93;;;;;;;17.34;100.00;99204.03;5049262;28;20037;-68
2022/09/28 06:23:39;;;;;;;15.93;15.02;;;;;;;17.75;100.00;99207.16;5051860;28;20484;-68
2022/09/28 06:26:05;;;;;;;16.52;15.52;;;;;;;18.11;100.00;99205.59;5042768;28;20025;-68
2022/09/28 06:28:30;;;;;;;15.48;14.68;;;;;;;21.55;100.00;99179.69;5051152;28;20112;-68
2022/09/28 06:30:59;;;;;;;14.80;14.00;;;;;;;24.28;100.00;99176.78;5051344;28;20154;-76
2022/09/28 06:33:26;;;;;;;14.73;13.93;;;;;;;26.06;100.00;99167.66;5051986;28;20036;-74
2022/09/28 06:35:51;;;;;;;15.65;14.75;;;;;;;26.01;100.00;99170.53;5044685;28;20032;-79
2022/09/28 06:38:18;;;;;;;13.68;12.98;;;;;;;27.05;100.00;99176.50;5051161;28;20037;-78
2022/09/28 06:40:43;;;;;;;15.38;14.48;;;;;;;27.04;100.00;99180.31;5052432;28;20040;-77
2022/09/28 06:43:16;;;;;;;14.38;13.65;;;;;;;29.42;100.00;99176.16;5056906;28;20115;-78
2022/09/28 06:45:42;;;;;;;14.98;14.18;;;;;;;27.36;100.00;99181.03;5046679;28;20021;-74
2022/09/28 06:48:09;;;;;;;15.32;14.52;;;;;;;25.47;100.00;99177.72;5048037;28;20041;-74
2022/09/28 06:50:39;;;;;;;14.27;13.57;;;;;;;28.95;100.00;99185.63;5052671;28;20067;-78
2022/09/28 06:53:08;;;;;;;14.20;13.50;;;;;;;28.56;100.00;99192.97;5048905;28;20510;-77
2022/09/28 06:55:34;;;;;;;13.57;12.88;;;;;;;30.69;95.87;99188.50;5054179;28;20593;-74
2022/09/28 06:58:05;;;;;;;14.32;13.63;;;;;;;29.62;95.12;99174.59;5046596;28;20116;-75
2022/09/28 07:00:34;;;;;;;14.05;13.35;;;;;;;31.18;88.06;99183.03;5048376;28;20037;-76
2022/09/28 07:03:04;;;;;;;14.02;13.32;;;;;;;29.14;96.62;99180.50;5061151;28;20132;-76
2022/09/28 07:05:33;;;;;;;14.88;14.07;;;;;;;30.70;93.10;99176.41;5056596;28;20848;-74
2022/09/28 07:08:00;;;;;;;13.80;13.10;;;;;;;28.48;100.00;99180.16;5050454;28;20032;-77
2022/09/28 07:10:28;;;;;;;13.60;12.95;;;;;;;27.20;100.00;99170.59;5065132;28;20029;-78
2022/09/28 07:12:55;;;;;;;14.95;14.15;;;;;;;28.88;100.00;99181.44;5061338;28;20039;-77
2022/09/28 07:15:22;;;;;;;14.15;13.45;;;;;;;29.31;98.24;99183.16;5063277;28;20027;-77
2022/09/28 07:17:48;;;;;;;13.93;13.23;;;;;;;27.22;100.00;99186.59;5055446;28;20048;-76
2022/09/28 07:20:14;;;;;;;13.80;13.10;;;;;;;28.09;100.00;99188.25;5059992;28;20040;-77
2022/09/28 07:22:39;;;;;;;14.55;13.80;;;;;;;28.86;99.63;99193.81;5065787;28;20029;-76
2022/09/28 07:25:06;;;;;;;14.07;13.38;;;;;;;26.69;100.00;99193.78;5065064;28;20032;-78
2022/09/28 07:27:33;;;;;;;14.00;13.30;;;;;;;26.75;100.00;99190.94;5067567;28;20020;-77
2022/09/28 07:29:58;;;;;;;15.35;14.50;;;;;;;25.65;100.00;99197.69;5061191;28;20477;-78
2022/09/28 07:32:26;;;;;;;15.48;14.60;;;;;;;25.47;100.00;99190.50;5061280;28;20036;-78
2022/09/28 07:34:52;;;;;;;15.00;14.20;;;;;;;25.25;100.00;99197.47;5056416;28;20025;-76
2022/09/28 07:37:18;;;;;;;15.10;14.30;;;;;;;25.93;100.00;99203.88;5062500;28;20672;-79
2022/09/28 07:42:29;;;;;;;14.07;13.38;;;;;;;24.44;100.00;99205.25;5056338;28;20120;-75
2022/09/28 07:44:56;;;;;;;15.05;14.25;;;;;;;23.97;100.00;99214.44;5054334;28;20061;-74
2022/09/28 07:47:28;;;;;;;14.40;13.70;;;;;;;23.81;100.00;99208.44;5056853;28;20033;-73
2022/09/28 07:49:56;;;;;;;14.75;14.00;;;;;;;23.32;100.00;99209.63;5065059;28;20051;-77
2022/09/28 07:52:24;;;;;;;14.90;14.10;;;;;;;23.50;100.00;99215.34;5071623;28;20096;-75
2022/09/28 07:54:54;;;;;;;14.60;13.90;;;;;;;23.37;100.00;99214.19;5060560;28;20082;-77
2022/09/28 07:57:20;;;;;;;16.75;15.75;;;;;;;22.59;100.00;99212.63;5053718;28;20029;-77
2022/09/28 07:59:47;;;;;;;15.18;14.38;;;;;;;22.56;100.00;99208.59;5048600;28;20024;-76
2022/09/28 08:02:13;;;;;;;15.57;14.70;;;;;;;22.86;100.00;99204.78;5053539;28;20025;-75
2022/09/28 08:04:39;;;;;;;15.57;14.75;;;;;;;23.38;100.00;99205.78;5052398;28;20032;-76
2022/09/28 08:07:09;;;;;;;15.93;15.02;;;;;;;23.57;100.00;99197.66;5047520;28;20045;-75
2022/09/28 08:09:34;;;;;;;15.88;14.98;;;;;;;24.05;100.00;99196.69;5050325;28;20033;-77
2022/09/28 08:12:00;;;;;;;14.93;14.13;;;;;;;24.36;100.00;99188.88;5061365;28;20108;-77
2022/09/28 08:14:26;;;;;;;15.38;14.50;;;;;;;24.64;100.00;99197.88;5056759;28;20416;-77
2022/09/28 08:16:52;;;;;;;16.15;15.15;;;;;;;25.97;100.00;99209.47;5054514;28;20033;-75
2022/09/28 08:19:17;;;;;;;14.77;13.98;;;;;;;28.28;100.00;99217.91;5060058;28;20022;-75
2022/09/28 08:21:46;;;;;;;13.40;12.80;;;;;;;28.81;96.37;99230.28;5050253;28;20017;-75
2022/09/28 08:24:14;;;;;;;14.70;13.90;;;;;;;26.74;100.00;99217.34;5069166;28;20140;-74
2022/09/28 08:26:43;;;;;;;14.02;13.32;;;;;;;28.19;100.00;99238.09;5058562;28;20048;-76
2022/09/28 08:29:10;;;;;;;14.45;13.65;;;;;;;28.61;94.80;99245.44;5063120;28;20114;-75
2022/09/28 08:31:35;;;;;;;15.00;14.20;;;;;;;27.04;100.00;99234.78;5070286;28;20049;-77
2022/09/28 08:34:02;;;;;;;14.48;13.70;;;;;;;26.95;100.00;99239.31;5055860;28;20476;-74
2022/09/28 08:36:27;;;;;;;14.18;13.48;;;;;;;28.21;100.00;99249.53;5063520;28;20037;-76
2022/09/28 08:38:53;;;;;;;14.77;13.98;;;;;;;28.37;97.58;99250.63;5053341;28;20039;-75
2022/09/28 08:41:39;;;;;;;14.73;13.95;;;;;;;29.32;87.43;99247.56;5068093;28;20035;-77
2022/09/28 08:44:11;;;;;;;15.75;14.85;;;;;;;29.96;85.44;99244.56;5063171;28;20044;-74
2022/09/28 08:46:57;;;;;;;14.88;14.07;;;;;;;29.32;82.62;99244.84;5048321;28;20395;-77
2022/09/28 08:49:33;;;;;;;14.80;14.00;;;;;;;29.01;71.95;99255.28;5060199;28;20474;-75
2022/09/28 08:52:18;;;;;;;14.40;13.70;;;;;;;28.57;82.56;99257.31;5054822;28;20488;-76
2022/09/28 08:54:47;;;;;;;14.65;13.90;;;;;;;29.86;78.86;99260.56;5056266;28;20025;-75
2022/09/28 08:57:21;;;;;;;15.00;14.20;;;;;;;29.11;79.95;99263.91;5062068;28;20091;-75
2022/09/28 08:59:58;;;;;;;14.65;13.95;;;;;;;29.37;79.98;99254.75;5057748;28;20046;-75
2022/09/28 09:02:38;;;;;;;15.48;14.57;;;;;;;28.89;69.96;99262.22;5053960;28;20467;-75
2022/09/28 09:05:09;;;;;;;15.77;14.88;;;;;;;29.26;69.26;99261.75;5056297;28;20072;-76
2022/09/28 09:08:12;;;;;;;15.77;14.88;;;;;;;29.95;71.41;99256.63;5050396;28;20032;-76
2022/09/28 09:10:52;;;;;;;15.95;15.05;;;;;;;30.67;70.31;99260.03;5056081;28;20053;-78
2022/09/28 09:13:49;;;;;;;15.43;14.60;;;;;;;29.75;63.28;99254.72;5050453;28;20017;-74
2022/09/28 09:16:35;;;;;;;15.05;14.25;;;;;;;29.12;66.05;99260.03;5055016;28;20044;-75
2022/09/28 09:19:16;;;;;;;15.13;14.32;;;;;;;30.48;64.10;99235.91;5047909;28;20033;-74
2022/09/28 09:21:47;;;;;;;15.50;14.70;;;;;;;30.31;59.64;99255.22;5057370;28;20029;-76
2022/09/28 09:24:25;;;;;;;14.20;13.50;;;;;;;29.32;65.23;99247.56;5049100;28;20029;-75
2022/09/28 09:27:00;;;;;;;14.90;14.10;;;;;;;28.70;68.71;99253.59;5047828;28;20032;-77
2022/09/28 09:29:50;;;;;;;14.10;13.40;;;;;;;27.83;72.81;99252.88;5045090;28;20461;-80
2022/09/28 09:33:03;;;;;;;14.43;13.73;;;;;;;27.45;75.74;99239.81;5059682;28;20020;-79
2022/09/28 09:35:53;;;;;;;15.10;14.30;;;;;;;27.16;81.80;99245.03;5032103;28;20888;-74
2022/09/28 09:38:52;;;;;;;14.85;14.05;;;;;;;27.08;81.58;99241.16;5056980;28;20029;-75
2022/09/28 09:41:30;;;;;;;14.52;13.82;;;;;;;26.60;82.97;99243.84;5059050;28;20025;-79
2022/09/28 09:44:19;;;;;;;15.10;14.30;;;;;;;26.06;85.53;99221.22;5055725;28;20343;-77
2022/09/28 09:46:54;;;;;;;14.73;13.93;;;;;;;26.47;83.29;99234.63;5063073;28;20100;-76
2022/09/28 09:49:29;;;;;;;14.85;14.05;;;;;;;26.08;85.96;99244.28;5066598;28;20053;-78
2022/09/28 09:52:18;;;;;;;14.80;14.07;;;;;;;25.67;82.95;99243.56;5072672;28;20024;-77
2022/09/28 09:55:02;;;;;;;15.07;14.27;;;;;;;25.35;86.84;99237.19;5065760;28;20113;-79
2022/09/28 09:57:34;;;;;;;16.63;15.63;;;;;;;25.26;86.04;99242.50;5062235;28;20028;-71
2022/09/28 10:00:03;;;;;;;15.77;14.88;;;;;;;25.07;89.21;99239.91;5062675;28;20094;-73
2022/09/28 10:02:31;;;;;;;15.05;14.25;;;;;;;24.52;93.01;99239.81;5052787;28;20031;-74
2022/09/28 10:05:13;;;;;;;15.90;15.00;;;;;;;24.62;94.22;99248.91;5054997;28;20078;-71
2022/09/28 10:07:50;;;;;;;16.02;15.13;;;;;;;25.07;91.32;99248.06;5054027;28;20032;-73
2022/09/28 10:10:43;;;;;;;15.60;14.70;;;;;;;24.74;92.61;99241.84;5048423;28;20425;-73
2022/09/28 10:13:09;;;;;;;14.88;14.07;;;;;;;24.62;92.49;99251.59;5057261;28;20060;-74
2022/09/28 10:15:35;;;;;;;15.40;14.60;;;;;;;24.57;92.17;99251.69;5052104;28;20047;-74
2022/09/28 10:18:09;;;;;;;17.92;16.75;;;;;;;24.77;91.09;99243.19;5061126;28;20139;-73
2022/09/28 10:20:41;;;;;;;15.27;14.48;;;;;;;24.36;92.04;99243.91;5058523;28;20032;-75
2022/09/28 10:23:16;;;;;;;15.65;14.75;;;;;;;24.47;91.44;99249.97;5048078;28;20028;-73
2022/09/28 10:25:44;;;;;;;15.45;14.57;;;;;;;24.41;90.94;99257.38;5044878;28;20025;-72
2022/09/28 10:28:18;;;;;;;15.80;14.90;;;;;;;24.84;89.02;99246.31;5051927;28;20021;-73
2022/09/28 10:30:43;;;;;;;15.02;14.23;;;;;;;24.58;89.48;99248.66;5061603;28;20024;-74
2022/09/28 10:33:44;;;;;;;14.52;13.82;;;;;;;24.41;87.03;99249.25;5062282;28;20034;-73
2022/09/28 10:36:10;;;;;;;15.00;14.20;;;;;;;24.55;85.25;99248.47;5029109;28;20033;-76
2022/09/28 10:38:35;;;;;;;15.13;14.32;;;;;;;24.84;82.19;99243.59;5055295;28;20152;-76
2022/09/28 10:41:10;;;;;;;15.88;14.98;;;;;;;24.68;86.49;99256.66;5057550;28;20024;-72
2022/09/28 10:44:05;;;;;;;16.45;15.45;;;;;;;24.73;88.35;99255.72;5045716;28;20040;-72
2022/09/28 10:46:37;;;;;;;14.48;13.77;;;;;;;24.92;84.65;99252.94;5040304;28;20032;-72
2022/09/28 10:49:10;;;;;;;15.45;14.63;;;;;;;24.50;86.45;99252.88;5043892;28;20041;-73
2022/09/28 10:51:53;;;;;;;14.13;13.43;;;;;;;24.57;88.44;99236.22;5046136;28;20029;-71
2022/09/28 10:54:20;;;;;;;14.55;13.85;;;;;;;24.71;87.57;99247.09;5051857;28;20432;-72
2022/09/28 10:56:47;;;;;;;14.93;14.13;;;;;;;24.90;88.16;99253.25;5049759;28;20029;-72
2022/09/28 10:59:23;;;;;;;15.40;14.60;;;;;;;25.05;86.71;99227.78;5042755;28;20064;-72
2022/09/28 11:01:55;;;;;;;15.90;15.00;;;;;;;25.03;89.47;99233.47;5047317;28;20036;-73
2022/09/28 11:04:25;;;;;;;15.18;14.38;;;;;;;25.41;85.28;99232.44;5047701;28;20483;-75
2022/09/28 11:06:51;;;;;;;14.88;14.07;;;;;;;25.21;85.92;99234.50;5060096;28;20033;-74
2022/09/28 11:09:46;;;;;;;15.65;14.75;;;;;;;24.59;89.78;99241.34;5052410;28;20025;-74
2022/09/28 11:12:20;;;;;;;14.85;14.05;;;;;;;24.78;89.18;99229.31;5050991;28;20029;-74
2022/09/28 11:14:51;;;;;;;14.25;13.55;;;;;;;24.94;90.21;99221.69;5052386;28;20013;-74
2022/09/28 11:17:37;;;;;;;14.57;13.80;;;;;;;24.87;88.25;99232.13;5048074;28;20037;-73
2022/09/28 11:20:24;;;;;;;14.60;13.80;;;;;;;24.92;88.51;99229.34;5046476;28;20067;-74
2022/09/28 11:22:57;;;;;;;15.55;14.65;;;;;;;25.19;86.78;99233.16;5051665;28;20097;-73
2022/09/28 11:25:27;;;;;;;14.52;13.80;;;;;;;25.64;84.48;99225.97;5052323;28;20025;-73
2022/09/28 11:27:53;;;;;;;14.23;13.52;;;;;;;24.95;89.07;99220.59;5052129;28;20078;-74
2022/09/28 11:30:28;;;;;;;14.30;13.60;;;;;;;25.17;87.65;99229.94;5050680;28;20032;-74
2022/09/28 11:33:01;;;;;;;13.98;13.27;;;;;;;25.16;89.06;99231.06;5048918;28;20958;-73
2022/09/28 11:35:41;;;;;;;14.10;13.40;;;;;;;25.53;86.67;99219.16;5053659;28;20044;-73
2022/09/28 11:38:14;;;;;;;14.27;13.57;;;;;;;25.17;88.06;99227.25;5050432;28;20025;-74